Time;durP1;ratioP1;P1;durP2;ratioP2;P2;SDS_P1;SDS_P2;PMS_P1;PMS_P2;Temp;Humidity;BMP_temperature;BMP_pressure;BME280_temperature;BME280_humidity;BME280_pressure;Samples;Min_cycle;Max_cycle;Signal;HPM_P1;HPM_P2
2021/06/03 00:00:58;;;;;;;6.33;4.97;;;16.90;99.90;;;;;;5053789;28;20601;-76
2021/06/03 00:03:24;;;;;;;5.63;4.90;;;16.90;99.90;;;;;;5053406;28;20482;-76
2021/06/03 00:05:52;;;;;;;6.00;5.60;;;16.80;99.90;;;;;;5053799;28;20940;-76
2021/06/03 00:08:22;;;;;;;5.27;4.87;;;16.80;99.90;;;;;;5053634;28;20978;-76
2021/06/03 00:10:52;;;;;;;5.57;5.07;;;16.80;99.90;;;;;;5053464;28;20480;-76
2021/06/03 00:13:19;;;;;;;5.80;5.20;;;16.70;99.90;;;;;;5053734;28;20885;-76
2021/06/03 00:15:45;;;;;;;7.23;5.07;;;16.70;99.90;;;;;;5053582;28;20483;-76
2021/06/03 00:18:12;;;;;;;4.63;4.33;;;16.70;99.90;;;;;;5053458;28;20484;-76
2021/06/03 00:20:41;;;;;;;5.60;5.00;;;16.60;99.90;;;;;;5052682;28;20567;-76
2021/06/03 00:23:07;;;;;;;5.40;4.90;;;16.60;99.90;;;;;;5053230;28;20982;-76
2021/06/03 00:25:35;;;;;;;6.60;5.43;;;16.60;99.90;;;;;;5053380;28;20448;-76
2021/06/03 00:28:02;;;;;;;6.10;5.50;;;16.60;99.90;;;;;;5071613;28;20602;-76
2021/06/03 00:30:28;;;;;;;6.50;5.90;;;16.60;99.90;;;;;;5073296;28;20483;-76
2021/06/03 00:32:54;;;;;;;5.57;5.17;;;16.60;99.90;;;;;;5073118;28;20440;-76
2021/06/03 00:35:20;;;;;;;5.93;5.33;;;16.50;99.90;;;;;;5073089;28;20528;-76
2021/06/03 00:37:48;;;;;;;6.43;5.83;;;16.50;99.90;;;;;;5072921;28;20452;-76
2021/06/03 00:40:15;;;;;;;6.07;5.60;;;16.50;99.90;;;;;;5073107;28;20906;-76
2021/06/03 00:42:43;;;;;;;7.30;6.10;;;16.50;99.90;;;;;;5073084;28;20497;-76
2021/06/03 00:45:12;;;;;;;5.27;4.70;;;16.40;99.90;;;;;;5073095;28;20456;-76
2021/06/03 00:47:39;;;;;;;8.60;5.40;;;16.40;99.90;;;;;;5073081;28;20588;-76
2021/06/03 00:50:09;;;;;;;6.13;5.13;;;16.30;99.90;;;;;;5072857;28;20501;-76
2021/06/03 00:52:37;;;;;;;7.57;6.80;;;16.30;99.90;;;;;;5073227;28;20490;-76
2021/06/03 00:55:04;;;;;;;9.80;8.80;;;16.20;99.90;;;;;;5073070;28;20523;-76
2021/06/03 00:57:30;;;;;;;8.00;7.40;;;16.20;99.90;;;;;;5073025;28;20546;-76
2021/06/03 00:59:57;;;;;;;7.10;5.63;;;16.20;99.90;;;;;;5072975;28;20985;-76
2021/06/03 01:02:23;;;;;;;10.10;7.30;;;16.20;99.90;;;;;;5072848;28;20550;-76
2021/06/03 01:04:49;;;;;;;12.90;11.00;;;16.10;99.90;;;;;;5072526;28;20511;-76
2021/06/03 01:07:15;;;;;;;9.20;7.00;;;16.10;99.90;;;;;;5072940;28;20494;-76
2021/06/03 01:09:50;;;;;;;5.80;5.30;;;16.10;99.90;;;;;;5072838;28;21014;-76
2021/06/03 01:12:20;;;;;;;5.60;5.00;;;16.00;99.90;;;;;;5072713;28;20446;-76
2021/06/03 01:14:52;;;;;;;6.20;5.60;;;16.00;99.90;;;;;;5072596;28;20500;-76
2021/06/03 01:17:21;;;;;;;7.67;6.87;;;16.00;99.90;;;;;;5072549;28;20868;-76
2021/06/03 01:19:48;;;;;;;6.97;6.37;;;15.90;99.90;;;;;;5072899;28;20534;-76
2021/06/03 01:22:18;;;;;;;13.67;8.80;;;15.90;99.90;;;;;;5072772;28;20962;-76
2021/06/03 01:24:47;;;;;;;8.07;6.33;;;15.80;99.90;;;;;;5072627;28;20451;-76
2021/06/03 01:27:17;;;;;;;7.80;7.03;;;15.80;99.90;;;;;;5072355;28;20962;-76
2021/06/03 01:29:48;;;;;;;9.00;6.20;;;15.80;99.90;;;;;;5072509;28;20444;-76
2021/06/03 01:32:16;;;;;;;6.53;5.93;;;15.80;99.90;;;;;;5074044;28;20936;-77
2021/06/03 01:34:42;;;;;;;6.73;6.13;;;15.70;99.90;;;;;;5076564;28;20483;-76
2021/06/03 01:37:09;;;;;;;6.60;6.00;;;15.70;99.90;;;;;;5076794;28;20479;-76
2021/06/03 01:39:37;;;;;;;6.13;5.20;;;15.60;99.90;;;;;;5074385;28;20454;-76
2021/06/03 01:42:06;;;;;;;6.50;6.00;;;15.60;99.90;;;;;;5057661;28;20567;-76
2021/06/03 01:44:33;;;;;;;6.63;6.03;;;15.60;99.90;;;;;;5056110;28;20864;-76
2021/06/03 01:47:00;;;;;;;5.63;5.10;;;15.50;99.90;;;;;;5056433;28;20521;-76
2021/06/03 01:49:26;;;;;;;6.23;5.70;;;15.50;99.90;;;;;;5056101;28;20480;-77
2021/06/03 01:51:53;;;;;;;6.43;5.80;;;15.50;99.90;;;;;;5056288;28;20479;-76
2021/06/03 01:54:20;;;;;;;6.60;6.00;;;15.50;99.90;;;;;;5056140;28;20449;-76
2021/06/03 01:56:47;;;;;;;7.60;5.93;;;15.40;99.90;;;;;;5056135;28;20486;-76
2021/06/03 01:59:14;;;;;;;6.07;5.47;;;15.40;99.90;;;;;;5055874;28;20484;-76
2021/06/03 02:01:40;;;;;;;6.20;5.70;;;15.30;99.90;;;;;;5056139;28;20475;-76
2021/06/03 02:04:06;;;;;;;7.23;6.37;;;15.30;99.90;;;;;;5055825;28;20511;-76
2021/06/03 02:06:32;;;;;;;6.80;6.30;;;15.30;99.90;;;;;;5055983;28;20482;-76
2021/06/03 02:08:58;;;;;;;6.33;5.73;;;15.30;99.90;;;;;;5055875;28;20480;-76
2021/06/03 02:11:24;;;;;;;5.70;5.20;;;15.20;99.90;;;;;;5056036;28;20448;-76
2021/06/03 02:13:55;;;;;;;6.33;5.83;;;15.20;99.90;;;;;;5055638;28;20480;-76
2021/06/03 02:16:26;;;;;;;5.90;5.30;;;15.20;99.90;;;;;;5055877;28;20475;-76
2021/06/03 02:18:56;;;;;;;6.97;6.20;;;15.10;99.90;;;;;;5055764;28;21052;-76
2021/06/03 02:21:24;;;;;;;10.77;6.20;;;15.00;99.90;;;;;;5055593;28;20483;-76
2021/06/03 02:23:51;;;;;;;6.60;6.10;;;15.00;99.90;;;;;;5055567;28;20898;-77
2021/06/03 02:26:17;;;;;;;7.40;5.80;;;15.00;99.90;;;;;;5059020;28;20471;-76
2021/06/03 02:28:44;;;;;;;6.50;6.10;;;14.90;99.90;;;;;;5075633;28;20534;-76
2021/06/03 02:31:11;;;;;;;6.80;6.17;;;14.80;99.90;;;;;;5075702;28;20455;-77
2021/06/03 02:33:40;;;;;;;7.43;6.83;;;14.80;99.90;;;;;;5075592;28;20534;-76
2021/06/03 02:36:06;;;;;;;8.33;5.67;;;14.80;99.90;;;;;;5075162;28;20475;-77
2021/06/03 02:38:35;;;;;;;7.73;7.03;;;14.70;99.90;;;;;;5075334;28;20534;-77
2021/06/03 02:41:06;;;;;;;6.27;5.70;;;14.70;99.90;;;;;;5075290;28;20533;-77
2021/06/03 02:43:32;;;;;;;8.40;6.30;;;14.70;99.90;;;;;;5074810;28;20447;-77
2021/06/03 02:45:58;;;;;;;8.17;6.50;;;14.60;99.90;;;;;;5075164;28;20866;-77
2021/06/03 02:48:24;;;;;;;7.10;6.33;;;14.60;99.90;;;;;;5075243;28;21033;-77
2021/06/03 02:50:51;;;;;;;9.23;6.60;;;14.60;99.90;;;;;;5075121;28;20851;-77
2021/06/03 02:53:17;;;;;;;7.60;6.90;;;14.60;99.90;;;;;;5075062;28;20534;-77
2021/06/03 02:55:44;;;;;;;6.87;6.27;;;14.60;99.90;;;;;;5074943;28;21061;-76
2021/06/03 02:58:11;;;;;;;9.07;6.60;;;14.50;99.90;;;;;;5075153;28;20487;-77
2021/06/03 03:00:38;;;;;;;6.33;5.83;;;14.50;99.90;;;;;;5073949;28;20571;-76
2021/06/03 03:03:09;;;;;;;7.60;7.00;;;14.50;99.90;;;;;;5073928;28;20479;-76
2021/06/03 03:05:35;;;;;;;9.60;6.63;;;14.50;99.90;;;;;;5074474;28;20824;-76
2021/06/03 03:08:03;;;;;;;7.47;6.87;;;14.40;99.90;;;;;;5074471;28;20486;-75
2021/06/03 03:10:34;;;;;;;7.57;6.90;;;14.40;99.90;;;;;;5071376;28;20467;-75
2021/06/03 03:13:00;;;;;;;7.13;6.57;;;14.40;99.90;;;;;;5073786;28;20475;-75
2021/06/03 03:15:26;;;;;;;6.93;6.40;;;14.40;99.90;;;;;;5073418;28;20486;-75
2021/06/03 03:17:53;;;;;;;7.23;6.70;;;14.40;99.90;;;;;;5072178;28;20539;-75
2021/06/03 03:20:22;;;;;;;11.53;6.37;;;14.40;99.90;;;;;;5071923;28;20471;-77
2021/06/03 03:22:49;;;;;;;6.97;6.20;;;14.40;99.90;;;;;;5072964;28;20451;-76
2021/06/03 03:25:17;;;;;;;7.37;6.70;;;14.40;99.90;;;;;;5073571;28;20859;-76
2021/06/03 03:27:45;;;;;;;8.97;7.13;;;14.40;99.90;;;;;;5077904;28;20826;-76
2021/06/03 03:30:13;;;;;;;7.47;6.50;;;14.50;99.90;;;;;;5074262;28;20483;-76
2021/06/03 03:32:39;;;;;;;7.20;6.23;;;14.50;99.90;;;;;;5074144;28;20487;-76
2021/06/03 03:35:08;;;;;;;7.13;6.50;;;14.50;99.90;;;;;;5074510;28;20483;-76
2021/06/03 03:37:35;;;;;;;6.97;6.37;;;14.50;99.90;;;;;;5074309;28;20452;-76
2021/06/03 03:40:02;;;;;;;6.50;5.70;;;14.50;99.90;;;;;;5073259;28;21042;-76
2021/06/03 03:42:29;;;;;;;8.23;6.47;;;14.60;99.90;;;;;;5069309;28;20491;-76
2021/06/03 03:44:55;;;;;;;7.00;6.30;;;14.60;99.90;;;;;;5074088;28;20461;-77
2021/06/03 03:47:21;;;;;;;6.10;5.50;;;14.70;99.90;;;;;;5073714;28;20501;-77
2021/06/03 03:49:47;;;;;;;6.43;5.90;;;14.80;99.90;;;;;;5074171;28;20534;-77
2021/06/03 03:52:13;;;;;;;10.70;7.90;;;14.80;99.90;;;;;;5073981;28;20542;-76
2021/06/03 03:54:40;;;;;;;6.23;5.67;;;14.80;99.90;;;;;;5073754;28;20547;-76
2021/06/03 03:57:07;;;;;;;6.77;6.17;;;14.90;99.90;;;;;;5073126;28;20480;-76
2021/06/03 03:59:35;;;;;;;5.70;5.30;;;15.00;99.90;;;;;;5073785;28;20451;-76
2021/06/03 04:02:02;;;;;;;7.33;6.43;;;14.90;99.90;;;;;;5073573;28;20579;-76
2021/06/03 04:04:29;;;;;;;6.30;5.80;;;15.00;99.90;;;;;;5073375;28;20467;-77
2021/06/03 04:06:56;;;;;;;6.57;5.97;;;15.10;99.90;;;;;;5073787;28;20479;-76
2021/06/03 04:09:22;;;;;;;7.00;6.40;;;15.10;99.90;;;;;;5073779;28;20483;-76
2021/06/03 04:11:48;;;;;;;9.60;5.93;;;15.20;99.90;;;;;;5073617;28;20455;-76
2021/06/03 04:14:14;;;;;;;7.27;6.67;;;15.20;99.90;;;;;;5073480;28;20479;-77
2021/06/03 04:16:42;;;;;;;7.07;6.47;;;15.30;99.90;;;;;;5073305;28;20459;-76
2021/06/03 04:19:08;;;;;;;6.83;5.83;;;15.40;99.90;;;;;;5073405;28;20538;-77
2021/06/03 04:21:34;;;;;;;6.27;5.73;;;15.40;99.90;;;;;;5073446;28;20570;-76
2021/06/03 04:24:00;;;;;;;6.63;6.10;;;15.50;99.90;;;;;;5073535;28;20475;-76
2021/06/03 04:26:26;;;;;;;5.50;4.93;;;15.50;99.90;;;;;;5073299;28;20531;-77
2021/06/03 04:28:52;;;;;;;7.10;6.50;;;15.60;99.90;;;;;;5073201;28;20536;-76
2021/06/03 04:31:18;;;;;;;7.73;7.00;;;15.70;99.90;;;;;;5073439;28;20457;-76
2021/06/03 04:33:46;;;;;;;6.20;5.60;;;15.70;99.90;;;;;;5073364;28;20567;-76
2021/06/03 04:36:12;;;;;;;7.07;5.40;;;15.80;99.90;;;;;;5073375;28;20447;-76
2021/06/03 04:38:38;;;;;;;8.03;6.90;;;15.90;99.90;;;;;;5073231;28;20446;-76
2021/06/03 04:41:05;;;;;;;8.47;6.53;;;16.00;99.90;;;;;;5073088;28;20515;-76
2021/06/03 04:43:31;;;;;;;6.70;6.10;;;16.00;99.90;;;;;;5072936;28;20875;-76
2021/06/03 04:45:57;;;;;;;7.13;6.53;;;16.10;99.90;;;;;;5073149;28;20493;-76
2021/06/03 04:48:23;;;;;;;6.20;5.70;;;16.20;99.90;;;;;;5073098;28;20479;-76
2021/06/03 04:50:51;;;;;;;5.63;5.23;;;16.20;99.90;;;;;;5073079;28;20486;-76
2021/06/03 04:53:18;;;;;;;6.93;5.73;;;16.30;99.90;;;;;;5073034;28;20451;-76
2021/06/03 04:55:45;;;;;;;6.57;5.80;;;16.40;99.90;;;;;;5072882;28;20452;-76
2021/06/03 04:58:11;;;;;;;6.40;5.80;;;16.50;99.90;;;;;;5072850;28;20450;-76
2021/06/03 05:00:41;;;;;;;5.90;5.40;;;16.60;99.90;;;;;;5072927;28;20501;-76
2021/06/03 05:03:08;;;;;;;6.33;5.73;;;16.60;99.90;;;;;;5072856;28;20494;-76
2021/06/03 05:05:35;;;;;;;9.77;5.70;;;16.70;99.90;;;;;;5072698;28;20471;-76
2021/06/03 05:08:02;;;;;;;8.93;6.90;;;16.70;99.90;;;;;;5072194;28;20447;-76
2021/06/03 05:10:30;;;;;;;8.63;5.47;;;16.80;99.90;;;;;;5072716;28;21080;-76
2021/06/03 05:12:57;;;;;;;5.63;5.13;;;16.80;99.90;;;;;;5072634;28;20878;-77
2021/06/03 05:15:24;;;;;;;7.30;5.50;;;16.90;99.90;;;;;;5072806;28;20541;-76
2021/06/03 05:17:52;;;;;;;6.07;5.53;;;17.00;99.90;;;;;;5072698;28;20479;-73
2021/06/03 05:20:20;;;;;;;6.03;5.40;;;17.10;99.90;;;;;;5072525;28;20458;-73
2021/06/03 05:22:50;;;;;;;4.97;4.50;;;17.20;99.90;;;;;;5072636;28;20547;-74
2021/06/03 05:25:20;;;;;;;5.23;4.93;;;17.30;99.90;;;;;;5072413;28;21016;-73
2021/06/03 05:27:46;;;;;;;5.97;5.27;;;17.30;99.90;;;;;;5072553;28;20479;-74
2021/06/03 05:30:14;;;;;;;6.50;5.23;;;17.50;99.90;;;;;;5072711;28;20530;-74
2021/06/03 05:32:41;;;;;;;6.73;5.37;;;17.50;99.90;;;;;;5072504;28;20447;-73
2021/06/03 05:35:10;;;;;;;8.90;5.07;;;17.70;99.90;;;;;;5072498;28;20530;-74
2021/06/03 05:37:37;;;;;;;7.00;5.17;;;17.80;99.90;;;;;;5072345;28;20537;-74
2021/06/03 05:40:04;;;;;;;6.00;5.37;;;17.80;99.90;;;;;;5072404;28;20538;-74
2021/06/03 05:42:32;;;;;;;7.20;5.20;;;17.90;99.90;;;;;;5060640;28;20571;-74
2021/06/03 05:44:59;;;;;;;5.20;4.70;;;18.10;99.90;;;;;;5052437;28;20542;-74
2021/06/03 05:47:25;;;;;;;6.13;5.53;;;18.30;99.90;;;;;;5052233;28;20455;-74
2021/06/03 05:49:51;;;;;;;6.70;5.77;;;18.50;99.90;;;;;;5052119;28;20503;-74
2021/06/03 05:52:17;;;;;;;10.50;5.53;;;18.80;99.90;;;;;;5052146;28;20484;-74
2021/06/03 05:54:43;;;;;;;19.40;15.53;;;19.10;99.90;;;;;;5052270;28;20478;-74
2021/06/03 05:57:09;;;;;;;6.23;5.70;;;19.40;99.90;;;;;;5052428;28;20860;-74
2021/06/03 05:59:36;;;;;;;5.80;5.27;;;19.70;99.90;;;;;;5052287;28;20574;-73
2021/06/03 06:02:05;;;;;;;9.03;5.60;;;20.10;99.90;;;;;;5052102;28;20522;-73
2021/06/03 06:07:15;;;;;;;8.80;8.00;;;21.00;99.90;;;;;;5052059;28;20431;-74
2021/06/03 06:09:41;;;;;;;7.97;7.17;;;21.20;99.90;;;;;;5052084;28;20523;-73
2021/06/03 06:12:08;;;;;;;6.80;4.80;;;21.60;99.90;;;;;;5052164;28;20526;-74
2021/06/03 06:14:36;;;;;;;6.97;5.00;;;22.00;99.90;;;;;;5052098;28;20448;-74
2021/06/03 06:17:02;;;;;;;6.60;4.50;;;22.40;99.90;;;;;;5051879;28;21049;-74
2021/06/03 06:19:30;;;;;;;4.27;3.97;;;22.90;99.90;;;;;;5053494;28;20527;-74
2021/06/03 06:21:57;;;;;;;7.03;5.10;;;23.20;99.90;;;;;;5055774;28;20527;-74
2021/06/03 06:24:23;;;;;;;4.57;4.17;;;23.50;99.90;;;;;;5055679;28;20492;-74
2021/06/03 06:26:49;;;;;;;5.53;4.37;;;23.80;99.90;;;;;;5063642;28;20485;-74
2021/06/03 06:29:15;;;;;;;7.77;4.90;;;24.10;99.90;;;;;;5072843;28;20451;-74
2021/06/03 06:31:42;;;;;;;5.10;3.90;;;24.40;99.90;;;;;;5074826;28;20518;-75
2021/06/03 06:34:08;;;;;;;6.63;4.10;;;24.70;98.90;;;;;;5074770;28;20481;-76
2021/06/03 06:36:35;;;;;;;6.87;4.17;;;24.90;99.00;;;;;;5071513;28;20969;-75
2021/06/03 06:39:03;;;;;;;9.50;4.87;;;25.10;98.00;;;;;;5074857;28;20501;-75
2021/06/03 06:41:29;;;;;;;5.27;4.77;;;25.20;97.40;;;;;;5074566;28;20464;-75
2021/06/03 06:43:55;;;;;;;4.70;4.20;;;25.30;96.60;;;;;;5074277;28;20938;-75
2021/06/03 06:46:21;;;;;;;5.33;4.53;;;25.40;96.90;;;;;;5074626;28;20483;-76
2021/06/03 06:48:49;;;;;;;5.37;4.80;;;25.50;95.90;;;;;;5074775;28;20529;-75
2021/06/03 06:51:15;;;;;;;4.23;3.90;;;25.60;95.60;;;;;;5074858;28;20479;-75
2021/06/03 06:53:41;;;;;;;5.07;4.00;;;25.80;95.20;;;;;;5074652;28;20493;-75
2021/06/03 06:56:07;;;;;;;4.40;4.07;;;25.90;94.40;;;;;;5074580;28;20546;-75
2021/06/03 06:58:33;;;;;;;5.57;4.50;;;26.00;94.90;;;;;;5074967;28;20529;-75
2021/06/03 07:01:02;;;;;;;7.07;3.90;;;26.20;94.90;;;;;;5073936;28;20459;-75
2021/06/03 07:03:28;;;;;;;4.50;4.10;;;26.30;94.20;;;;;;5063821;28;20483;-82
2021/06/03 07:05:55;;;;;;;3.90;3.60;;;26.50;93.50;;;;;;5073846;28;20892;-82
2021/06/03 07:08:21;;;;;;;4.70;4.30;;;26.50;92.70;;;;;;5074338;28;20542;-82
2021/06/03 07:10:48;;;;;;;4.90;4.50;;;26.70;92.60;;;;;;5074316;28;20513;-82
2021/06/03 07:13:14;;;;;;;7.60;5.20;;;26.70;91.80;;;;;;5074454;28;20492;-83
2021/06/03 07:15:40;;;;;;;6.20;5.70;;;26.80;91.30;;;;;;5074218;28;20485;-83
2021/06/03 07:18:06;;;;;;;5.03;4.43;;;26.90;91.20;;;;;;5074449;28;20536;-84
2021/06/03 07:20:34;;;;;;;6.70;4.40;;;27.00;91.50;;;;;;5074246;28;20472;-84
2021/06/03 07:23:04;;;;;;;8.60;4.57;;;27.10;91.50;;;;;;5074085;28;20966;-83
2021/06/03 07:25:32;;;;;;;4.50;3.90;;;27.20;90.10;;;;;;5074148;28;20517;-83
2021/06/03 07:27:58;;;;;;;4.20;3.90;;;27.10;89.10;;;;;;5073979;28;20946;-75
2021/06/03 07:30:25;;;;;;;5.50;4.07;;;27.00;87.80;;;;;;5073665;28;20447;-75
2021/06/03 07:32:52;;;;;;;4.27;3.97;;;27.10;87.80;;;;;;5073895;28;20538;-76
2021/06/03 07:35:19;;;;;;;5.87;4.20;;;27.10;88.00;;;;;;5074014;28;20543;-75
2021/06/03 07:37:49;;;;;;;3.90;3.70;;;27.20;88.50;;;;;;5073924;28;20487;-76
2021/06/03 07:40:20;;;;;;;5.17;4.20;;;27.20;88.00;;;;;;5074109;28;20472;-75
2021/06/03 07:42:47;;;;;;;5.67;3.87;;;27.10;85.50;;;;;;5067058;28;20480;-76
2021/06/03 07:45:14;;;;;;;5.00;4.60;;;27.10;87.10;;;;;;5073845;28;20533;-76
2021/06/03 07:47:41;;;;;;;4.10;3.80;;;27.10;86.10;;;;;;5073763;28;20535;-76
2021/06/03 07:50:09;;;;;;;4.07;3.73;;;27.20;85.80;;;;;;5073625;28;20597;-75
2021/06/03 07:52:36;;;;;;;4.70;4.20;;;27.20;84.60;;;;;;5073589;28;20512;-75
2021/06/03 07:55:04;;;;;;;4.57;4.20;;;27.10;84.40;;;;;;5073408;28;20448;-75
2021/06/03 07:57:31;;;;;;;8.33;7.30;;;27.00;85.30;;;;;;5073320;28;20535;-75
2021/06/03 07:59:57;;;;;;;4.30;4.00;;;27.00;83.90;;;;;;5073461;28;20440;-76
2021/06/03 08:02:23;;;;;;;4.90;4.50;;;26.90;85.10;;;;;;5071029;28;20511;-75
2021/06/03 08:04:49;;;;;;;5.10;4.07;;;26.80;84.00;;;;;;5058774;28;20563;-75
2021/06/03 08:07:15;;;;;;;4.43;4.10;;;26.80;83.00;;;;;;5059144;28;20530;-75
2021/06/03 08:09:43;;;;;;;4.20;3.80;;;26.70;83.40;;;;;;5072840;28;20443;-76
2021/06/03 08:12:10;;;;;;;3.80;3.50;;;26.60;83.70;;;;;;5064877;28;20456;-75
2021/06/03 08:14:37;;;;;;;6.27;4.17;;;26.60;85.30;;;;;;5071885;28;20536;-76
2021/06/03 08:17:04;;;;;;;4.80;3.47;;;26.70;84.70;;;;;;5072713;28;20493;-75
2021/06/03 08:19:30;;;;;;;4.10;3.70;;;26.60;83.60;;;;;;5072610;28;20530;-75
2021/06/03 08:21:56;;;;;;;5.07;4.03;;;26.60;82.40;;;;;;5072832;28;20567;-75
2021/06/03 08:24:22;;;;;;;6.83;4.40;;;26.60;82.80;;;;;;5072961;28;20452;-75
2021/06/03 08:26:50;;;;;;;3.70;3.50;;;26.60;82.20;;;;;;5073000;28;20444;-75
2021/06/03 08:29:17;;;;;;;3.80;3.43;;;26.60;80.90;;;;;;5073132;28;20485;-75
2021/06/03 08:31:44;;;;;;;3.40;3.10;;;26.60;80.10;;;;;;5072942;28;20443;-75
2021/06/03 08:34:11;;;;;;;3.70;3.20;;;26.50;78.60;;;;;;5072785;28;20474;-75
2021/06/03 08:36:37;;;;;;;6.63;2.80;;;26.50;80.80;;;;;;5072659;28;20444;-75
2021/06/03 08:39:04;;;;;;;3.30;3.10;;;26.30;76.00;;;;;;5072765;28;20517;-75
2021/06/03 08:41:34;;;;;;;5.30;4.90;;;26.10;76.20;;;;;;5072313;28;20590;-76
2021/06/03 08:44:03;;;;;;;3.70;3.40;;;26.00;77.60;;;;;;5072501;28;21052;-75
2021/06/03 08:46:29;;;;;;;3.80;3.50;;;25.90;79.70;;;;;;5072700;28;20448;-75
2021/06/03 08:48:56;;;;;;;5.83;2.97;;;25.80;76.50;;;;;;5072559;28;20524;-75
2021/06/03 08:51:23;;;;;;;3.20;3.00;;;25.70;76.30;;;;;;5072351;28;20807;-76
2021/06/03 08:53:49;;;;;;;3.03;2.83;;;25.70;75.80;;;;;;5072671;28;20523;-75
2021/06/03 08:56:17;;;;;;;3.43;3.13;;;25.60;76.00;;;;;;5072608;28;20454;-75
2021/06/03 08:58:45;;;;;;;3.33;3.10;;;25.50;75.90;;;;;;5072613;28;21127;-75
2021/06/03 09:01:12;;;;;;;3.30;3.10;;;25.40;74.50;;;;;;5072371;28;20998;-75
2021/06/03 09:03:38;;;;;;;3.73;3.30;;;25.40;75.30;;;;;;5072273;28;20536;-76
2021/06/03 09:06:06;;;;;;;4.93;3.07;;;25.30;76.40;;;;;;5072129;28;20526;-75
2021/06/03 09:08:33;;;;;;;5.60;5.00;;;25.30;77.50;;;;;;5072505;28;20454;-76
2021/06/03 09:11:01;;;;;;;3.80;3.50;;;25.30;74.90;;;;;;5072384;28;20475;-75
2021/06/03 09:13:30;;;;;;;2.87;2.67;;;25.30;76.40;;;;;;5072326;28;20497;-75
2021/06/03 09:15:58;;;;;;;3.00;2.60;;;25.20;75.70;;;;;;5072262;28;20939;-76
2021/06/03 09:18:30;;;;;;;3.20;3.00;;;25.10;74.20;;;;;;5072198;28;20483;-76
2021/06/03 09:21:06;;;;;;;3.03;2.83;;;25.10;74.70;;;;;;5072243;28;20467;-73
2021/06/03 09:23:35;;;;;;;4.07;2.90;;;25.10;74.60;;;;;;5072509;28;20447;-73
2021/06/03 09:26:07;;;;;;;3.07;2.87;;;25.00;74.20;;;;;;5072159;28;20475;-72
2021/06/03 09:28:35;;;;;;;3.77;3.50;;;24.90;73.30;;;;;;5072300;28;20538;-72
2021/06/03 09:31:04;;;;;;;6.33;4.30;;;24.90;74.60;;;;;;5071927;28;20479;-73
2021/06/03 09:33:38;;;;;;;4.90;2.90;;;24.90;74.60;;;;;;5071889;28;20455;-73
2021/06/03 09:36:06;;;;;;;4.93;3.40;;;24.90;74.90;;;;;;5071625;28;20480;-73
2021/06/03 09:38:34;;;;;;;4.53;3.50;;;24.90;74.90;;;;;;5072233;28;20803;-73
2021/06/03 09:41:01;;;;;;;5.60;2.80;;;24.90;74.00;;;;;;5072125;28;20464;-73
2021/06/03 09:43:27;;;;;;;9.27;5.60;;;24.90;74.80;;;;;;5071922;28;20482;-74
2021/06/03 09:45:55;;;;;;;8.40;3.70;;;24.80;75.10;;;;;;5071746;28;20475;-74
2021/06/03 09:48:39;;;;;;;2.80;2.70;;;24.90;73.70;;;;;;5071747;28;21065;-74
2021/06/03 09:51:25;;;;;;;3.47;3.17;;;24.80;73.40;;;;;;5063131;28;20534;-73
2021/06/03 09:54:01;;;;;;;5.63;3.20;;;24.70;73.70;;;;;;5072212;28;20814;-74
2021/06/03 09:56:30;;;;;;;3.20;2.57;;;24.70;73.70;;;;;;5076046;28;20439;-73
2021/06/03 09:58:56;;;;;;;3.20;3.00;;;24.70;74.40;;;;;;5075864;28;20450;-73
2021/06/03 10:01:39;;;;;;;2.80;2.60;;;24.60;74.10;;;;;;5068307;28;20545;-74
2021/06/03 10:04:06;;;;;;;3.00;2.80;;;24.50;74.10;;;;;;5069096;28;20466;-73
2021/06/03 10:06:32;;;;;;;4.53;3.17;;;24.50;74.20;;;;;;5075196;28;20482;-74
2021/06/03 10:08:59;;;;;;;5.83;2.70;;;24.50;73.60;;;;;;5075699;28;20443;-73
2021/06/03 10:11:45;;;;;;;4.57;3.10;;;24.50;73.90;;;;;;5075377;28;20958;-74
2021/06/03 10:14:12;;;;;;;3.50;2.60;;;24.40;74.30;;;;;;5075320;28;20462;-74
2021/06/03 10:16:38;;;;;;;3.80;3.40;;;24.50;74.00;;;;;;5075438;28;20443;-73
2021/06/03 10:19:21;;;;;;;3.00;2.87;;;24.50;73.80;;;;;;5058763;28;20481;-74
2021/06/03 10:22:10;;;;;;;2.77;2.60;;;24.40;73.30;;;;;;5068188;28;20478;-73
2021/06/03 10:24:53;;;;;;;2.90;2.73;;;24.40;75.30;;;;;;5075413;28;20471;-73
2021/06/03 10:27:21;;;;;;;2.80;2.60;;;24.40;74.20;;;;;;5067201;28;20451;-74
2021/06/03 10:29:49;;;;;;;3.43;2.63;;;24.50;73.20;;;;;;5075302;28;20482;-73
2021/06/03 10:32:15;;;;;;;3.30;3.00;;;24.50;72.80;;;;;;5075131;28;20471;-74
2021/06/03 10:34:43;;;;;;;2.60;2.40;;;24.50;74.10;;;;;;5075140;28;20807;-74
2021/06/03 10:37:11;;;;;;;4.40;4.00;;;24.50;76.30;;;;;;5074830;28;20455;-73
2021/06/03 10:39:38;;;;;;;3.90;3.40;;;24.50;75.00;;;;;;5075013;28;20540;-73
2021/06/03 10:42:07;;;;;;;2.87;2.67;;;24.60;75.90;;;;;;5074678;28;20569;-74
2021/06/03 10:44:35;;;;;;;2.97;2.77;;;24.60;74.40;;;;;;5074907;28;20451;-73
2021/06/03 10:47:01;;;;;;;4.00;3.53;;;24.60;74.70;;;;;;5074860;28;20479;-73
2021/06/03 10:49:30;;;;;;;3.27;2.67;;;24.60;74.90;;;;;;5074946;28;20482;-73
2021/06/03 10:51:57;;;;;;;2.97;2.77;;;24.60;73.50;;;;;;5071681;28;20459;-73
2021/06/03 10:54:49;;;;;;;2.73;2.60;;;24.60;75.40;;;;;;5073543;28;20879;-73
2021/06/03 10:57:20;;;;;;;3.23;3.00;;;24.70;73.50;;;;;;5071993;28;20881;-73
2021/06/03 10:59:47;;;;;;;3.47;2.83;;;24.70;73.10;;;;;;5074454;28;20443;-74
2021/06/03 11:02:13;;;;;;;5.60;5.10;;;24.70;73.50;;;;;;5073861;28;20475;-73
2021/06/03 11:04:41;;;;;;;3.57;3.27;;;24.70;73.40;;;;;;5073379;28;20472;-74
2021/06/03 11:07:09;;;;;;;4.27;3.97;;;24.70;73.50;;;;;;5074304;28;20487;-74
2021/06/03 11:09:37;;;;;;;4.07;3.57;;;24.70;72.90;;;;;;5071460;28;20558;-74
2021/06/03 11:12:10;;;;;;;2.77;2.57;;;24.70;74.00;;;;;;5074009;28;20537;-74
2021/06/03 11:15:06;;;;;;;3.37;3.17;;;24.70;74.50;;;;;;5073781;28;20522;-74
2021/06/03 11:18:05;;;;;;;3.30;3.00;;;24.70;74.00;;;;;;5061569;28;20534;-74
2021/06/03 11:20:41;;;;;;;2.93;2.73;;;24.70;73.10;;;;;;5074382;28;20486;-74
2021/06/03 11:23:57;;;;;;;4.43;4.03;;;24.80;75.60;;;;;;5057988;28;20533;-73
2021/06/03 11:26:48;;;;;;;6.63;3.00;;;24.80;72.90;;;;;;5074282;28;20444;-73
2021/06/03 11:29:16;;;;;;;2.97;2.77;;;24.80;73.40;;;;;;5058996;28;20444;-74
2021/06/03 11:31:47;;;;;;;3.33;3.07;;;24.80;74.60;;;;;;5074095;28;20478;-73
2021/06/03 11:34:14;;;;;;;3.00;2.80;;;24.80;73.20;;;;;;5074106;28;21077;-73
2021/06/03 11:36:42;;;;;;;3.00;2.80;;;24.80;72.80;;;;;;5074033;28;20478;-73
2021/06/03 11:39:35;;;;;;;3.30;2.87;;;24.80;73.60;;;;;;5073896;28;20969;-73
2021/06/03 11:42:24;;;;;;;2.80;2.60;;;24.90;74.10;;;;;;5073688;28;20852;-73
2021/06/03 11:45:11;;;;;;;2.53;2.43;;;24.90;72.50;;;;;;5073865;28;20482;-73
2021/06/03 11:47:56;;;;;;;3.37;3.00;;;24.90;71.80;;;;;;5073756;28;20984;-73
2021/06/03 11:50:46;;;;;;;3.70;2.43;;;24.90;72.10;;;;;;5073568;28;20451;-73
2021/06/03 11:53:17;;;;;;;4.13;2.83;;;25.00;73.20;;;;;;5058512;28;20481;-73
2021/06/03 11:55:47;;;;;;;3.27;3.07;;;24.90;72.10;;;;;;5073651;28;20443;-73
2021/06/03 11:58:29;;;;;;;3.23;3.03;;;25.00;73.90;;;;;;5073525;28;20455;-73
2021/06/03 12:00:58;;;;;;;2.87;2.67;;;25.00;73.10;;;;;;5071666;28;20458;-74
2021/06/03 12:03:28;;;;;;;2.93;2.73;;;25.00;72.50;;;;;;5060233;28;20458;-75
2021/06/03 12:05:56;;;;;;;4.10;3.70;;;25.00;73.20;;;;;;5073213;28;20926;-74
2021/06/03 12:08:49;;;;;;;5.43;3.90;;;25.00;73.40;;;;;;5073387;28;20600;-73
2021/06/03 12:11:21;;;;;;;3.83;3.53;;;25.00;72.50;;;;;;5052960;28;20954;-73
2021/06/03 12:14:00;;;;;;;3.30;3.10;;;25.10;72.90;;;;;;5073184;28;20859;-74
2021/06/03 12:16:34;;;;;;;2.90;2.70;;;25.20;72.30;;;;;;5071019;28;20439;-73
2021/06/03 12:19:01;;;;;;;2.70;2.50;;;25.20;72.60;;;;;;5073119;28;20448;-73
2021/06/03 12:21:27;;;;;;;2.90;2.70;;;25.20;70.80;;;;;;5073107;28;20463;-73
2021/06/03 12:23:53;;;;;;;3.17;2.87;;;25.10;71.60;;;;;;5073096;28;20467;-73
2021/06/03 12:26:21;;;;;;;3.47;3.07;;;25.20;71.50;;;;;;5073031;28;20483;-74
2021/06/03 12:28:48;;;;;;;3.10;2.87;;;25.20;70.70;;;;;;5072706;28;21052;-73
2021/06/03 12:31:18;;;;;;;4.03;3.73;;;25.20;71.70;;;;;;5073010;28;20534;-73
2021/06/03 12:33:45;;;;;;;5.17;3.30;;;25.30;72.20;;;;;;5072989;28;20483;-73
2021/06/03 12:36:12;;;;;;;4.90;3.63;;;25.30;72.20;;;;;;5072750;28;20884;-73
2021/06/03 12:38:41;;;;;;;4.33;4.00;;;25.30;70.60;;;;;;5072691;28;20475;-73
2021/06/03 12:41:10;;;;;;;4.40;4.03;;;25.30;69.90;;;;;;5056843;28;20457;-74
2021/06/03 12:43:37;;;;;;;4.20;3.60;;;25.30;71.70;;;;;;5072803;28;20886;-73
2021/06/03 12:46:04;;;;;;;2.57;2.37;;;25.30;72.90;;;;;;5072657;28;20851;-73
2021/06/03 12:48:31;;;;;;;2.80;2.60;;;25.30;70.00;;;;;;5072643;28;20479;-73
2021/06/03 12:50:58;;;;;;;3.03;2.70;;;25.40;71.70;;;;;;5072531;28;20448;-74
2021/06/03 12:53:26;;;;;;;4.47;3.23;;;25.40;71.40;;;;;;5072485;28;20490;-73
2021/06/03 12:55:52;;;;;;;4.87;4.40;;;25.50;71.90;;;;;;5072349;28;20471;-73